sensor_id;sensor_type;location;lat;lon;timestamp;P1;durP1;ratioP1;P2;durP2;ratioP2
19059;SDS011;9663;48.996;8.334;2024-02-15T00:00:13;2.72;;;0.90;;
19059;SDS011;9663;48.996;8.334;2024-02-15T00:02:41;2.20;;;0.90;;
19059;SDS011;9663;48.996;8.334;2024-02-15T00:05:09;3.63;;;0.90;;
19059;SDS011;9663;48.996;8.334;2024-02-15T00:07:36;4.05;;;1.00;;
19059;SDS011;9663;48.996;8.334;2024-02-15T00:10:02;2.97;;;1.13;;
19059;SDS011;9663;48.996;8.334;2024-02-15T00:12:29;2.85;;;1.10;;
19059;SDS011;9663;48.996;8.334;2024-02-15T00:14:55;3.38;;;1.17;;
19059;SDS011;9663;48.996;8.334;2024-02-15T00:17:27;2.80;;;1.10;;
19059;SDS011;9663;48.996;8.334;2024-02-15T00:19:57;3.28;;;1.00;;
19059;SDS011;9663;48.996;8.334;2024-02-15T00:22:23;2.90;;;1.10;;
19059;SDS011;9663;48.996;8.334;2024-02-15T00:24:49;3.75;;;1.23;;
19059;SDS011;9663;48.996;8.334;2024-02-15T00:27:16;2.95;;;1.02;;
19059;SDS011;9663;48.996;8.334;2024-02-15T00:29:41;3.08;;;1.17;;
19059;SDS011;9663;48.996;8.334;2024-02-15T00:32:08;3.22;;;1.20;;
19059;SDS011;9663;48.996;8.334;2024-02-15T00:34:37;3.00;;;1.20;;
19059;SDS011;9663;48.996;8.334;2024-02-15T00:37:06;2.28;;;0.90;;
19059;SDS011;9663;48.996;8.334;2024-02-15T00:39:32;2.70;;;1.10;;
19059;SDS011;9663;48.996;8.334;2024-02-15T00:41:58;4.20;;;1.40;;
19059;SDS011;9663;48.996;8.334;2024-02-15T00:44:25;3.22;;;1.20;;
19059;SDS011;9663;48.996;8.334;2024-02-15T00:46:52;3.13;;;1.05;;
19059;SDS011;9663;48.996;8.334;2024-02-15T00:49:17;3.45;;;1.27;;
19059;SDS011;9663;48.996;8.334;2024-02-15T00:51:45;3.70;;;1.15;;
19059;SDS011;9663;48.996;8.334;2024-02-15T00:54:12;4.05;;;1.10;;
19059;SDS011;9663;48.996;8.334;2024-02-15T00:56:37;2.67;;;1.13;;
19059;SDS011;9663;48.996;8.334;2024-02-15T00:59:03;4.28;;;1.38;;
19059;SDS011;9663;48.996;8.334;2024-02-15T01:01:30;2.85;;;1.10;;
19059;SDS011;9663;48.996;8.334;2024-02-15T01:03:56;3.30;;;1.20;;
19059;SDS011;9663;48.996;8.334;2024-02-15T01:06:22;2.75;;;1.10;;
19059;SDS011;9663;48.996;8.334;2024-02-15T01:08:48;2.78;;;1.00;;
19059;SDS011;9663;48.996;8.334;2024-02-15T01:11:14;2.65;;;1.10;;
19059;SDS011;9663;48.996;8.334;2024-02-15T01:13:40;3.33;;;1.25;;
19059;SDS011;9663;48.996;8.334;2024-02-15T01:16:06;4.43;;;1.27;;
19059;SDS011;9663;48.996;8.334;2024-02-15T01:18:33;3.13;;;1.30;;
19059;SDS011;9663;48.996;8.334;2024-02-15T01:20:59;3.15;;;1.10;;
19059;SDS011;9663;48.996;8.334;2024-02-15T01:23:25;3.05;;;1.05;;
19059;SDS011;9663;48.996;8.334;2024-02-15T01:25:51;3.45;;;1.23;;
19059;SDS011;9663;48.996;8.334;2024-02-15T01:28:17;2.53;;;0.90;;
19059;SDS011;9663;48.996;8.334;2024-02-15T01:30:43;2.90;;;1.00;;
19059;SDS011;9663;48.996;8.334;2024-02-15T01:33:11;3.15;;;1.00;;
19059;SDS011;9663;48.996;8.334;2024-02-15T01:35:37;3.95;;;1.35;;
19059;SDS011;9663;48.996;8.334;2024-02-15T01:38:04;2.45;;;0.93;;
19059;SDS011;9663;48.996;8.334;2024-02-15T01:40:33;3.22;;;1.15;;
19059;SDS011;9663;48.996;8.334;2024-02-15T01:42:59;3.00;;;1.17;;
19059;SDS011;9663;48.996;8.334;2024-02-15T01:45:25;3.40;;;1.20;;
19059;SDS011;9663;48.996;8.334;2024-02-15T01:47:52;4.05;;;1.13;;
19059;SDS011;9663;48.996;8.334;2024-02-15T01:50:19;3.72;;;0.98;;
19059;SDS011;9663;48.996;8.334;2024-02-15T01:52:50;3.58;;;1.05;;
19059;SDS011;9663;48.996;8.334;2024-02-15T01:55:19;2.88;;;1.05;;
19059;SDS011;9663;48.996;8.334;2024-02-15T01:57:46;3.45;;;1.13;;
19059;SDS011;9663;48.996;8.334;2024-02-15T02:00:17;4.25;;;1.25;;
19059;SDS011;9663;48.996;8.334;2024-02-15T02:02:44;3.67;;;1.23;;
19059;SDS011;9663;48.996;8.334;2024-02-15T02:05:11;3.88;;;1.20;;
19059;SDS011;9663;48.996;8.334;2024-02-15T02:07:37;2.83;;;1.20;;
19059;SDS011;9663;48.996;8.334;2024-02-15T02:10:03;3.63;;;1.15;;
19059;SDS011;9663;48.996;8.334;2024-02-15T02:12:30;2.17;;;1.00;;
19059;SDS011;9663;48.996;8.334;2024-02-15T02:14:57;3.00;;;1.00;;
19059;SDS011;9663;48.996;8.334;2024-02-15T02:17:22;2.65;;;1.10;;
19059;SDS011;9663;48.996;8.334;2024-02-15T02:19:48;2.92;;;1.15;;
19059;SDS011;9663;48.996;8.334;2024-02-15T02:22:16;2.65;;;1.10;;
19059;SDS011;9663;48.996;8.334;2024-02-15T02:27:34;2.63;;;1.02;;
19059;SDS011;9663;48.996;8.334;2024-02-15T02:30:02;2.42;;;1.05;;
19059;SDS011;9663;48.996;8.334;2024-02-15T02:32:32;3.00;;;1.20;;
19059;SDS011;9663;48.996;8.334;2024-02-15T02:34:59;3.38;;;1.25;;
19059;SDS011;9663;48.996;8.334;2024-02-15T02:37:25;3.30;;;1.38;;
19059;SDS011;9663;48.996;8.334;2024-02-15T02:39:51;5.40;;;1.38;;
19059;SDS011;9663;48.996;8.334;2024-02-15T02:42:17;3.35;;;1.25;;
19059;SDS011;9663;48.996;8.334;2024-02-15T02:44:43;3.72;;;1.30;;
19059;SDS011;9663;48.996;8.334;2024-02-15T02:47:09;3.70;;;1.15;;
19059;SDS011;9663;48.996;8.334;2024-02-15T02:49:35;4.13;;;1.33;;
19059;SDS011;9663;48.996;8.334;2024-02-15T02:52:02;3.58;;;1.15;;
19059;SDS011;9663;48.996;8.334;2024-02-15T02:54:28;3.42;;;1.30;;
19059;SDS011;9663;48.996;8.334;2024-02-15T02:56:54;3.00;;;1.23;;
19059;SDS011;9663;48.996;8.334;2024-02-15T02:59:20;2.85;;;1.17;;
19059;SDS011;9663;48.996;8.334;2024-02-15T03:01:46;3.35;;;1.17;;
19059;SDS011;9663;48.996;8.334;2024-02-15T03:04:15;4.55;;;1.73;;
19059;SDS011;9663;48.996;8.334;2024-02-15T03:06:44;3.13;;;1.27;;
19059;SDS011;9663;48.996;8.334;2024-02-15T03:09:10;3.25;;;1.30;;
19059;SDS011;9663;48.996;8.334;2024-02-15T03:11:39;3.42;;;1.40;;
19059;SDS011;9663;48.996;8.334;2024-02-15T03:14:05;2.90;;;1.20;;
19059;SDS011;9663;48.996;8.334;2024-02-15T03:16:31;4.78;;;1.30;;
19059;SDS011;9663;48.996;8.334;2024-02-15T03:18:57;3.92;;;1.20;;
19059;SDS011;9663;48.996;8.334;2024-02-15T03:21:23;3.83;;;1.40;;
19059;SDS011;9663;48.996;8.334;2024-02-15T03:23:49;3.75;;;1.30;;
19059;SDS011;9663;48.996;8.334;2024-02-15T03:26:14;3.30;;;1.08;;
19059;SDS011;9663;48.996;8.334;2024-02-15T03:28:40;3.50;;;1.20;;
19059;SDS011;9663;48.996;8.334;2024-02-15T03:31:06;2.75;;;1.10;;
19059;SDS011;9663;48.996;8.334;2024-02-15T03:33:32;2.72;;;1.13;;
19059;SDS011;9663;48.996;8.334;2024-02-15T03:36:00;2.67;;;1.00;;
19059;SDS011;9663;48.996;8.334;2024-02-15T03:38:26;3.60;;;1.27;;
19059;SDS011;9663;48.996;8.334;2024-02-15T03:40:54;4.05;;;1.15;;
19059;SDS011;9663;48.996;8.334;2024-02-15T03:43:21;4.13;;;1.38;;
19059;SDS011;9663;48.996;8.334;2024-02-15T03:45:48;3.00;;;1.20;;
19059;SDS011;9663;48.996;8.334;2024-02-15T03:48:15;2.28;;;1.00;;
19059;SDS011;9663;48.996;8.334;2024-02-15T03:50:40;4.68;;;1.38;;
19059;SDS011;9663;48.996;8.334;2024-02-15T03:53:09;3.33;;;1.00;;
19059;SDS011;9663;48.996;8.334;2024-02-15T03:55:38;3.53;;;1.30;;
19059;SDS011;9663;48.996;8.334;2024-02-15T03:58:04;4.18;;;1.20;;
19059;SDS011;9663;48.996;8.334;2024-02-15T04:00:30;2.35;;;1.00;;
19059;SDS011;9663;48.996;8.334;2024-02-15T04:02:55;3.03;;;1.25;;
19059;SDS011;9663;48.996;8.334;2024-02-15T04:05:21;2.67;;;1.08;;
19059;SDS011;9663;48.996;8.334;2024-02-15T04:07:48;5.03;;;1.45;;
19059;SDS011;9663;48.996;8.334;2024-02-15T04:10:14;2.65;;;1.13;;
19059;SDS011;9663;48.996;8.334;2024-02-15T04:12:42;2.83;;;0.90;;
19059;SDS011;9663;48.996;8.334;2024-02-15T04:15:08;2.53;;;1.00;;
19059;SDS011;9663;48.996;8.334;2024-02-15T04:17:38;3.30;;;1.15;;
19059;SDS011;9663;48.996;8.334;2024-02-15T04:20:04;3.65;;;1.38;;
19059;SDS011;9663;48.996;8.334;2024-02-15T04:22:31;3.55;;;1.25;;
19059;SDS011;9663;48.996;8.334;2024-02-15T04:25:08;2.92;;;1.10;;
19059;SDS011;9663;48.996;8.334;2024-02-15T04:27:41;4.07;;;1.48;;
19059;SDS011;9663;48.996;8.334;2024-02-15T04:30:07;3.03;;;1.17;;
19059;SDS011;9663;48.996;8.334;2024-02-15T04:32:34;3.90;;;1.38;;
19059;SDS011;9663;48.996;8.334;2024-02-15T04:35:01;4.22;;;1.50;;
19059;SDS011;9663;48.996;8.334;2024-02-15T04:37:27;3.63;;;1.08;;
19059;SDS011;9663;48.996;8.334;2024-02-15T04:39:54;2.90;;;1.10;;
19059;SDS011;9663;48.996;8.334;2024-02-15T04:42:20;3.38;;;1.40;;
19059;SDS011;9663;48.996;8.334;2024-02-15T04:44:46;2.92;;;1.15;;
19059;SDS011;9663;48.996;8.334;2024-02-15T04:47:12;3.40;;;1.30;;
19059;SDS011;9663;48.996;8.334;2024-02-15T04:49:37;3.03;;;1.20;;
19059;SDS011;9663;48.996;8.334;2024-02-15T04:52:03;2.95;;;1.20;;
19059;SDS011;9663;48.996;8.334;2024-02-15T04:54:30;4.55;;;1.15;;
19059;SDS011;9663;48.996;8.334;2024-02-15T04:56:57;3.30;;;1.13;;
19059;SDS011;9663;48.996;8.334;2024-02-15T04:59:23;3.42;;;1.20;;
19059;SDS011;9663;48.996;8.334;2024-02-15T05:01:54;4.32;;;1.30;;
19059;SDS011;9663;48.996;8.334;2024-02-15T05:04:21;2.13;;;0.98;;
19059;SDS011;9663;48.996;8.334;2024-02-15T05:06:47;2.85;;;1.20;;
19059;SDS011;9663;48.996;8.334;2024-02-15T05:09:13;2.47;;;0.90;;
19059;SDS011;9663;48.996;8.334;2024-02-15T05:11:42;2.67;;;1.10;;
19059;SDS011;9663;48.996;8.334;2024-02-15T05:14:11;2.63;;;1.20;;
19059;SDS011;9663;48.996;8.334;2024-02-15T05:16:43;2.75;;;1.02;;
19059;SDS011;9663;48.996;8.334;2024-02-15T05:19:15;2.85;;;1.10;;
19059;SDS011;9663;48.996;8.334;2024-02-15T05:21:41;2.47;;;1.10;;
19059;SDS011;9663;48.996;8.334;2024-02-15T05:24:12;2.78;;;1.10;;
19059;SDS011;9663;48.996;8.334;2024-02-15T05:26:39;2.25;;;0.88;;
19059;SDS011;9663;48.996;8.334;2024-02-15T05:29:07;3.30;;;1.10;;
19059;SDS011;9663;48.996;8.334;2024-02-15T05:31:35;2.10;;;0.90;;
19059;SDS011;9663;48.996;8.334;2024-02-15T05:34:03;3.47;;;1.20;;
19059;SDS011;9663;48.996;8.334;2024-02-15T05:36:32;2.92;;;1.17;;
19059;SDS011;9663;48.996;8.334;2024-02-15T05:38:58;5.75;;;1.00;;
19059;SDS011;9663;48.996;8.334;2024-02-15T05:41:25;3.33;;;1.30;;
19059;SDS011;9663;48.996;8.334;2024-02-15T05:43:51;3.40;;;1.10;;
19059;SDS011;9663;48.996;8.334;2024-02-15T05:46:19;3.45;;;1.00;;
19059;SDS011;9663;48.996;8.334;2024-02-15T05:48:48;2.80;;;1.10;;
19059;SDS011;9663;48.996;8.334;2024-02-15T05:51:14;3.03;;;1.10;;
19059;SDS011;9663;48.996;8.334;2024-02-15T05:53:41;3.05;;;1.10;;
19059;SDS011;9663;48.996;8.334;2024-02-15T05:56:07;3.80;;;1.00;;
19059;SDS011;9663;48.996;8.334;2024-02-15T05:58:37;2.72;;;1.08;;
19059;SDS011;9663;48.996;8.334;2024-02-15T06:01:04;2.60;;;1.10;;
19059;SDS011;9663;48.996;8.334;2024-02-15T06:03:31;3.08;;;1.10;;
19059;SDS011;9663;48.996;8.334;2024-02-15T06:06:00;3.00;;;1.08;;
19059;SDS011;9663;48.996;8.334;2024-02-15T06:08:27;3.83;;;1.20;;
19059;SDS011;9663;48.996;8.334;2024-02-15T06:10:57;3.05;;;1.20;;
19059;SDS011;9663;48.996;8.334;2024-02-15T06:13:23;3.35;;;1.17;;
19059;SDS011;9663;48.996;8.334;2024-02-15T06:15:50;2.80;;;1.35;;
19059;SDS011;9663;48.996;8.334;2024-02-15T06:18:22;3.05;;;1.13;;
19059;SDS011;9663;48.996;8.334;2024-02-15T06:20:54;2.55;;;1.02;;
19059;SDS011;9663;48.996;8.334;2024-02-15T06:23:24;3.88;;;1.10;;
19059;SDS011;9663;48.996;8.334;2024-02-15T06:25:52;2.28;;;0.90;;
19059;SDS011;9663;48.996;8.334;2024-02-15T06:28:19;3.30;;;1.00;;
19059;SDS011;9663;48.996;8.334;2024-02-15T06:31:04;3.08;;;1.25;;
19059;SDS011;9663;48.996;8.334;2024-02-15T06:33:53;3.03;;;1.10;;
19059;SDS011;9663;48.996;8.334;2024-02-15T06:36:46;2.33;;;0.90;;
19059;SDS011;9663;48.996;8.334;2024-02-15T06:39:31;2.78;;;1.00;;
19059;SDS011;9663;48.996;8.334;2024-02-15T06:42:05;3.22;;;1.00;;
19059;SDS011;9663;48.996;8.334;2024-02-15T06:44:32;2.17;;;0.90;;
19059;SDS011;9663;48.996;8.334;2024-02-15T06:46:58;3.00;;;0.90;;
19059;SDS011;9663;48.996;8.334;2024-02-15T06:49:24;3.13;;;1.15;;
19059;SDS011;9663;48.996;8.334;2024-02-15T06:51:50;3.88;;;1.10;;
19059;SDS011;9663;48.996;8.334;2024-02-15T06:54:17;2.95;;;1.05;;
19059;SDS011;9663;48.996;8.334;2024-02-15T06:56:43;2.63;;;1.00;;
19059;SDS011;9663;48.996;8.334;2024-02-15T06:59:11;2.83;;;1.15;;
19059;SDS011;9663;48.996;8.334;2024-02-15T07:01:41;2.60;;;1.02;;
19059;SDS011;9663;48.996;8.334;2024-02-15T07:04:08;3.60;;;1.20;;
19059;SDS011;9663;48.996;8.334;2024-02-15T07:06:35;3.38;;;1.20;;
19059;SDS011;9663;48.996;8.334;2024-02-15T07:09:03;3.28;;;1.20;;
19059;SDS011;9663;48.996;8.334;2024-02-15T07:11:31;4.15;;;1.20;;
19059;SDS011;9663;48.996;8.334;2024-02-15T07:14:03;3.63;;;1.23;;
19059;SDS011;9663;48.996;8.334;2024-02-15T07:16:32;3.55;;;1.17;;
19059;SDS011;9663;48.996;8.334;2024-02-15T07:18:58;3.10;;;1.30;;
19059;SDS011;9663;48.996;8.334;2024-02-15T07:21:25;3.83;;;1.40;;
19059;SDS011;9663;48.996;8.334;2024-02-15T07:23:52;3.95;;;1.50;;
19059;SDS011;9663;48.996;8.334;2024-02-15T07:26:21;3.97;;;1.55;;
19059;SDS011;9663;48.996;8.334;2024-02-15T07:28:53;4.22;;;1.20;;
19059;SDS011;9663;48.996;8.334;2024-02-15T07:31:20;3.17;;;1.17;;
19059;SDS011;9663;48.996;8.334;2024-02-15T07:33:47;3.28;;;1.30;;
19059;SDS011;9663;48.996;8.334;2024-02-15T07:36:13;3.35;;;1.20;;
19059;SDS011;9663;48.996;8.334;2024-02-15T07:38:44;3.30;;;1.20;;
19059;SDS011;9663;48.996;8.334;2024-02-15T07:41:10;6.18;;;1.30;;
19059;SDS011;9663;48.996;8.334;2024-02-15T07:43:38;3.58;;;1.33;;
19059;SDS011;9663;48.996;8.334;2024-02-15T07:46:04;4.65;;;1.33;;
19059;SDS011;9663;48.996;8.334;2024-02-15T07:48:30;2.95;;;1.15;;
19059;SDS011;9663;48.996;8.334;2024-02-15T07:50:56;3.38;;;1.15;;
19059;SDS011;9663;48.996;8.334;2024-02-15T07:53:23;4.15;;;1.50;;
19059;SDS011;9663;48.996;8.334;2024-02-15T07:55:50;4.43;;;1.30;;
19059;SDS011;9663;48.996;8.334;2024-02-15T07:58:15;2.47;;;1.00;;
19059;SDS011;9663;48.996;8.334;2024-02-15T08:00:43;3.75;;;1.40;;
19059;SDS011;9663;48.996;8.334;2024-02-15T08:03:12;3.03;;;1.10;;
19059;SDS011;9663;48.996;8.334;2024-02-15T08:05:39;2.88;;;1.13;;
19059;SDS011;9663;48.996;8.334;2024-02-15T08:08:05;4.75;;;1.70;;
19059;SDS011;9663;48.996;8.334;2024-02-15T08:10:31;4.43;;;1.80;;
19059;SDS011;9663;48.996;8.334;2024-02-15T08:12:58;4.22;;;1.85;;
19059;SDS011;9663;48.996;8.334;2024-02-15T08:15:24;4.55;;;1.80;;
19059;SDS011;9663;48.996;8.334;2024-02-15T08:17:52;3.40;;;1.52;;
19059;SDS011;9663;48.996;8.334;2024-02-15T08:20:20;4.03;;;1.52;;
19059;SDS011;9663;48.996;8.334;2024-02-15T08:22:49;3.80;;;1.40;;
19059;SDS011;9663;48.996;8.334;2024-02-15T08:25:14;5.10;;;1.60;;
19059;SDS011;9663;48.996;8.334;2024-02-15T08:27:41;3.28;;;1.35;;
19059;SDS011;9663;48.996;8.334;2024-02-15T08:30:14;4.25;;;1.55;;
19059;SDS011;9663;48.996;8.334;2024-02-15T08:32:42;3.28;;;1.10;;
19059;SDS011;9663;48.996;8.334;2024-02-15T08:35:10;3.60;;;1.17;;
19059;SDS011;9663;48.996;8.334;2024-02-15T08:37:37;3.58;;;1.23;;
19059;SDS011;9663;48.996;8.334;2024-02-15T08:40:10;4.70;;;1.25;;
19059;SDS011;9663;48.996;8.334;2024-02-15T08:42:43;3.22;;;1.17;;
19059;SDS011;9663;48.996;8.334;2024-02-15T08:45:09;3.30;;;1.10;;
19059;SDS011;9663;48.996;8.334;2024-02-15T08:47:36;2.00;;;0.88;;
19059;SDS011;9663;48.996;8.334;2024-02-15T08:50:07;2.42;;;1.00;;
19059;SDS011;9663;48.996;8.334;2024-02-15T08:52:34;4.63;;;1.00;;
19059;SDS011;9663;48.996;8.334;2024-02-15T08:55:08;2.75;;;1.00;;
19059;SDS011;9663;48.996;8.334;2024-02-15T08:57:36;3.17;;;1.10;;
19059;SDS011;9663;48.996;8.334;2024-02-15T09:00:05;3.05;;;1.10;;
19059;SDS011;9663;48.996;8.334;2024-02-15T09:02:38;3.38;;;1.15;;
19059;SDS011;9663;48.996;8.334;2024-02-15T09:05:05;2.55;;;0.90;;
19059;SDS011;9663;48.996;8.334;2024-02-15T09:07:31;2.55;;;1.08;;
19059;SDS011;9663;48.996;8.334;2024-02-15T09:09:57;3.33;;;1.05;;
19059;SDS011;9663;48.996;8.334;2024-02-15T09:12:24;2.72;;;0.95;;
19059;SDS011;9663;48.996;8.334;2024-02-15T09:14:50;2.70;;;1.02;;
19059;SDS011;9663;48.996;8.334;2024-02-15T09:17:15;4.00;;;1.10;;
19059;SDS011;9663;48.996;8.334;2024-02-15T09:19:41;2.72;;;1.08;;
19059;SDS011;9663;48.996;8.334;2024-02-15T09:22:07;2.80;;;1.02;;
19059;SDS011;9663;48.996;8.334;2024-02-15T09:24:33;4.20;;;1.25;;
19059;SDS011;9663;48.996;8.334;2024-02-15T09:27:02;3.00;;;1.20;;
19059;SDS011;9663;48.996;8.334;2024-02-15T09:29:28;3.22;;;1.10;;
19059;SDS011;9663;48.996;8.334;2024-02-15T09:31:59;3.60;;;1.10;;
19059;SDS011;9663;48.996;8.334;2024-02-15T09:34:28;4.00;;;1.27;;
19059;SDS011;9663;48.996;8.334;2024-02-15T09:36:54;2.95;;;1.33;;
19059;SDS011;9663;48.996;8.334;2024-02-15T09:39:21;2.88;;;1.00;;
19059;SDS011;9663;48.996;8.334;2024-02-15T09:41:48;4.38;;;1.67;;
19059;SDS011;9663;48.996;8.334;2024-02-15T09:44:20;3.50;;;1.08;;
19059;SDS011;9663;48.996;8.334;2024-02-15T09:46:46;3.05;;;1.05;;
19059;SDS011;9663;48.996;8.334;2024-02-15T09:49:28;2.20;;;0.80;;
19059;SDS011;9663;48.996;8.334;2024-02-15T09:51:55;2.47;;;0.90;;
19059;SDS011;9663;48.996;8.334;2024-02-15T09:54:23;3.08;;;1.00;;
19059;SDS011;9663;48.996;8.334;2024-02-15T09:56:50;2.97;;;1.10;;
19059;SDS011;9663;48.996;8.334;2024-02-15T09:59:17;2.42;;;0.90;;
19059;SDS011;9663;48.996;8.334;2024-02-15T10:01:44;2.63;;;0.98;;
19059;SDS011;9663;48.996;8.334;2024-02-15T10:04:13;2.70;;;0.93;;
19059;SDS011;9663;48.996;8.334;2024-02-15T10:06:41;3.13;;;0.90;;
19059;SDS011;9663;48.996;8.334;2024-02-15T10:09:23;4.20;;;1.73;;
19059;SDS011;9663;48.996;8.334;2024-02-15T10:11:58;4.43;;;1.48;;
19059;SDS011;9663;48.996;8.334;2024-02-15T10:14:29;2.88;;;1.02;;
19059;SDS011;9663;48.996;8.334;2024-02-15T10:16:55;3.22;;;1.15;;
19059;SDS011;9663;48.996;8.334;2024-02-15T10:19:22;3.60;;;1.10;;
19059;SDS011;9663;48.996;8.334;2024-02-15T10:21:52;3.38;;;1.08;;
19059;SDS011;9663;48.996;8.334;2024-02-15T10:24:22;3.28;;;1.17;;
19059;SDS011;9663;48.996;8.334;2024-02-15T10:26:59;3.78;;;1.20;;
19059;SDS011;9663;48.996;8.334;2024-02-15T10:29:32;3.88;;;1.45;;
19059;SDS011;9663;48.996;8.334;2024-02-15T10:32:02;2.20;;;0.90;;
19059;SDS011;9663;48.996;8.334;2024-02-15T10:34:29;2.72;;;0.90;;
19059;SDS011;9663;48.996;8.334;2024-02-15T10:37:13;2.40;;;0.85;;
19059;SDS011;9663;48.996;8.334;2024-02-15T10:39:45;2.50;;;0.85;;
19059;SDS011;9663;48.996;8.334;2024-02-15T10:42:12;1.98;;;0.80;;
19059;SDS011;9663;48.996;8.334;2024-02-15T10:44:40;2.47;;;0.88;;
19059;SDS011;9663;48.996;8.334;2024-02-15T10:47:08;2.83;;;1.00;;
19059;SDS011;9663;48.996;8.334;2024-02-15T10:49:34;2.60;;;1.00;;
19059;SDS011;9663;48.996;8.334;2024-02-15T10:52:03;2.60;;;1.08;;
19059;SDS011;9663;48.996;8.334;2024-02-15T10:57:06;2.38;;;0.93;;
19059;SDS011;9663;48.996;8.334;2024-02-15T10:59:38;3.00;;;0.90;;
19059;SDS011;9663;48.996;8.334;2024-02-15T11:02:51;2.38;;;0.98;;
19059;SDS011;9663;48.996;8.334;2024-02-15T11:05:06;2.47;;;0.93;;
19059;SDS011;9663;48.996;8.334;2024-02-15T11:07:35;4.57;;;1.02;;
19059;SDS011;9663;48.996;8.334;2024-02-15T11:10:02;2.40;;;0.95;;
19059;SDS011;9663;48.996;8.334;2024-02-15T11:12:35;2.63;;;1.00;;
19059;SDS011;9663;48.996;8.334;2024-02-15T11:15:02;3.15;;;1.10;;
19059;SDS011;9663;48.996;8.334;2024-02-15T11:20:10;3.15;;;1.10;;
19059;SDS011;9663;48.996;8.334;2024-02-15T11:23:02;2.88;;;0.95;;
19059;SDS011;9663;48.996;8.334;2024-02-15T11:25:31;2.88;;;0.90;;
19059;SDS011;9663;48.996;8.334;2024-02-15T11:30:49;3.00;;;0.98;;
19059;SDS011;9663;48.996;8.334;2024-02-15T11:33:31;3.00;;;0.90;;
19059;SDS011;9663;48.996;8.334;2024-02-15T11:36:11;2.60;;;0.93;;
19059;SDS011;9663;48.996;8.334;2024-02-15T11:38:38;2.75;;;0.93;;
19059;SDS011;9663;48.996;8.334;2024-02-15T11:41:08;2.42;;;0.80;;
19059;SDS011;9663;48.996;8.334;2024-02-15T11:43:45;2.80;;;0.90;;
19059;SDS011;9663;48.996;8.334;2024-02-15T11:46:23;2.67;;;0.90;;
19059;SDS011;9663;48.996;8.334;2024-02-15T11:48:52;2.60;;;0.95;;
19059;SDS011;9663;48.996;8.334;2024-02-15T11:51:26;2.30;;;0.90;;
19059;SDS011;9663;48.996;8.334;2024-02-15T11:54:25;3.65;;;1.00;;
19059;SDS011;9663;48.996;8.334;2024-02-15T11:56:52;1.70;;;0.70;;
19059;SDS011;9663;48.996;8.334;2024-02-15T11:59:29;1.85;;;0.70;;
19059;SDS011;9663;48.996;8.334;2024-02-15T12:02:07;2.20;;;0.85;;
19059;SDS011;9663;48.996;8.334;2024-02-15T12:04:52;2.28;;;0.80;;
19059;SDS011;9663;48.996;8.334;2024-02-15T12:07:36;2.28;;;0.80;;
19059;SDS011;9663;48.996;8.334;2024-02-15T12:10:22;2.33;;;0.90;;
19059;SDS011;9663;48.996;8.334;2024-02-15T12:13:06;3.22;;;0.90;;
19059;SDS011;9663;48.996;8.334;2024-02-15T12:15:59;2.72;;;0.88;;
19059;SDS011;9663;48.996;8.334;2024-02-15T12:18:45;2.85;;;0.90;;
19059;SDS011;9663;48.996;8.334;2024-02-15T12:21:19;2.78;;;0.82;;
19059;SDS011;9663;48.996;8.334;2024-02-15T12:23:51;3.83;;;1.02;;
19059;SDS011;9663;48.996;8.334;2024-02-15T12:26:22;2.72;;;1.10;;
19059;SDS011;9663;48.996;8.334;2024-02-15T12:28:55;2.65;;;0.80;;
19059;SDS011;9663;48.996;8.334;2024-02-15T12:31:21;3.17;;;0.85;;
19059;SDS011;9663;48.996;8.334;2024-02-15T12:34:00;2.20;;;0.77;;
19059;SDS011;9663;48.996;8.334;2024-02-15T12:36:34;3.13;;;0.90;;
19059;SDS011;9663;48.996;8.334;2024-02-15T12:39:04;2.83;;;0.80;;
19059;SDS011;9663;48.996;8.334;2024-02-15T12:41:51;3.10;;;0.80;;
19059;SDS011;9663;48.996;8.334;2024-02-15T12:44:18;2.95;;;0.90;;
19059;SDS011;9663;48.996;8.334;2024-02-15T12:46:53;2.17;;;0.90;;
19059;SDS011;9663;48.996;8.334;2024-02-15T12:51:52;1.73;;;0.77;;
19059;SDS011;9663;48.996;8.334;2024-02-15T12:54:39;1.90;;;0.80;;
19059;SDS011;9663;48.996;8.334;2024-02-15T12:57:07;2.60;;;0.90;;
19059;SDS011;9663;48.996;8.334;2024-02-15T12:59:39;2.55;;;0.70;;
19059;SDS011;9663;48.996;8.334;2024-02-15T13:02:04;2.78;;;0.88;;
19059;SDS011;9663;48.996;8.334;2024-02-15T13:04:30;2.45;;;0.90;;
19059;SDS011;9663;48.996;8.334;2024-02-15T13:06:56;2.70;;;0.98;;
19059;SDS011;9663;48.996;8.334;2024-02-15T13:09:22;2.65;;;0.93;;
19059;SDS011;9663;48.996;8.334;2024-02-15T13:11:48;2.17;;;0.88;;
19059;SDS011;9663;48.996;8.334;2024-02-15T13:14:15;2.63;;;0.98;;
19059;SDS011;9663;48.996;8.334;2024-02-15T13:16:41;2.70;;;0.80;;
19059;SDS011;9663;48.996;8.334;2024-02-15T13:19:08;3.15;;;0.98;;
19059;SDS011;9663;48.996;8.334;2024-02-15T13:21:34;2.60;;;0.70;;
19059;SDS011;9663;48.996;8.334;2024-02-15T13:24:00;3.38;;;0.82;;
19059;SDS011;9663;48.996;8.334;2024-02-15T13:26:30;2.63;;;0.95;;
19059;SDS011;9663;48.996;8.334;2024-02-15T13:28:59;3.00;;;1.00;;
19059;SDS011;9663;48.996;8.334;2024-02-15T13:31:24;2.83;;;0.80;;
19059;SDS011;9663;48.996;8.334;2024-02-15T13:33:52;4.82;;;1.08;;
19059;SDS011;9663;48.996;8.334;2024-02-15T13:36:18;2.58;;;1.00;;
19059;SDS011;9663;48.996;8.334;2024-02-15T13:38:45;2.38;;;0.88;;
19059;SDS011;9663;48.996;8.334;2024-02-15T13:41:12;2.88;;;1.05;;
19059;SDS011;9663;48.996;8.334;2024-02-15T13:43:37;2.42;;;0.90;;
19059;SDS011;9663;48.996;8.334;2024-02-15T13:46:06;3.15;;;1.02;;
19059;SDS011;9663;48.996;8.334;2024-02-15T13:48:33;2.13;;;0.88;;
19059;SDS011;9663;48.996;8.334;2024-02-15T13:50:59;3.42;;;1.00;;
19059;SDS011;9663;48.996;8.334;2024-02-15T13:53:25;3.20;;;1.08;;
19059;SDS011;9663;48.996;8.334;2024-02-15T13:55:51;2.65;;;0.90;;
19059;SDS011;9663;48.996;8.334;2024-02-15T13:58:17;3.10;;;1.00;;
19059;SDS011;9663;48.996;8.334;2024-02-15T14:00:43;3.15;;;1.10;;
19059;SDS011;9663;48.996;8.334;2024-02-15T14:03:10;2.53;;;0.98;;
19059;SDS011;9663;48.996;8.334;2024-02-15T14:05:36;3.15;;;0.82;;
19059;SDS011;9663;48.996;8.334;2024-02-15T14:08:05;2.38;;;0.90;;
19059;SDS011;9663;48.996;8.334;2024-02-15T14:10:32;3.30;;;1.10;;
19059;SDS011;9663;48.996;8.334;2024-02-15T14:13:00;2.75;;;0.90;;
19059;SDS011;9663;48.996;8.334;2024-02-15T14:15:34;2.42;;;0.82;;
19059;SDS011;9663;48.996;8.334;2024-02-15T14:18:06;3.53;;;1.00;;
19059;SDS011;9663;48.996;8.334;2024-02-15T14:20:43;3.53;;;1.20;;
19059;SDS011;9663;48.996;8.334;2024-02-15T14:23:13;3.05;;;0.93;;
19059;SDS011;9663;48.996;8.334;2024-02-15T14:25:39;2.67;;;0.93;;
19059;SDS011;9663;48.996;8.334;2024-02-15T14:28:05;3.67;;;1.00;;
19059;SDS011;9663;48.996;8.334;2024-02-15T14:30:33;2.72;;;0.80;;
19059;SDS011;9663;48.996;8.334;2024-02-15T14:33:18;3.22;;;1.00;;
19059;SDS011;9663;48.996;8.334;2024-02-15T14:35:44;3.60;;;1.00;;
19059;SDS011;9663;48.996;8.334;2024-02-15T14:38:12;2.67;;;1.08;;
19059;SDS011;9663;48.996;8.334;2024-02-15T14:40:39;2.03;;;0.80;;
19059;SDS011;9663;48.996;8.334;2024-02-15T14:43:16;2.90;;;1.02;;
19059;SDS011;9663;48.996;8.334;2024-02-15T14:45:44;1.83;;;0.80;;
19059;SDS011;9663;48.996;8.334;2024-02-15T14:48:10;3.00;;;1.10;;
19059;SDS011;9663;48.996;8.334;2024-02-15T14:50:38;2.17;;;0.80;;
19059;SDS011;9663;48.996;8.334;2024-02-15T14:53:05;3.55;;;1.08;;
19059;SDS011;9663;48.996;8.334;2024-02-15T14:55:32;2.83;;;0.98;;
19059;SDS011;9663;48.996;8.334;2024-02-15T14:57:59;2.58;;;0.82;;
19059;SDS011;9663;48.996;8.334;2024-02-15T15:00:25;1.90;;;0.60;;
19059;SDS011;9663;48.996;8.334;2024-02-15T15:02:52;2.28;;;0.75;;
19059;SDS011;9663;48.996;8.334;2024-02-15T15:05:21;1.83;;;0.70;;
19059;SDS011;9663;48.996;8.334;2024-02-15T15:08:06;2.17;;;0.80;;
19059;SDS011;9663;48.996;8.334;2024-02-15T15:10:50;1.60;;;0.68;;
19059;SDS011;9663;48.996;8.334;2024-02-15T15:13:35;1.67;;;0.63;;
19059;SDS011;9663;48.996;8.334;2024-02-15T15:16:01;2.75;;;0.80;;
19059;SDS011;9663;48.996;8.334;2024-02-15T15:18:28;2.60;;;0.88;;
19059;SDS011;9663;48.996;8.334;2024-02-15T15:20:56;2.08;;;0.73;;
19059;SDS011;9663;48.996;8.334;2024-02-15T15:23:23;1.67;;;0.70;;